Portada
METAR-TAF:

METAR-TAF

Aeroports :

Mataram, Indonèsia

latitud: 08-45-29S, longitud: 116-16-35E, altitud: 97 m

Observació

L'informe es va fer fa 10 minuts, a les 09:30 UTC
Vent 10 kt del Sud/Sud-Oest
Temperatura 30°C
Humitat 70%
Pressió 1009 hPa
Visibilitat: 8000 m
Cel ennuvolat a una alçada de 1600 ft

METAR: WADL 170930Z 21010KT 8000 BKN016 30/24 Q1009 NOSIG

Hora: 16:40 (09:40 UTC)

Pronòstic

L'informe es va fer fa 4 hores i 40 minuts, a les 05:00 UTC
Pronòstic vàlid del 17 a les 06 UTC al 18 a les 06 UTC
Vent 15 kt del Sud
Visibilitat: 8000 m
Cel ennuvolat a una alçada de 1600 ft

TAF: WADL 170500Z 1706/1806 17015KT 8000 BKN016

Observacions i pronòstics meteorològics de més de 4000 aeroports (METAR i TAF).

Les estacions disponibles són els punts grocs i vermells al mapa.

Posi el ratolí al punt desitjat per veure el nom de l'estació.

Feu clic per veure les observacions i els pronòstics meteorològics.

Per canviar el mapa: feu clic els botons verds amb una creu de color negre per apropar; al botó verd amb un guió per allunyar la imatge; o en les fletxes verdes per a mapes adjacents.


METAR-TAF: